Millville, Delaware
Current Conditions -  °F | °C
As of 9:53 PM on Monday 26 Jan 2015 (Local Time) from KOXB Reporting Station
Unknown Precip Unknown Precip  
Wind Chill: 25°   Ceiling: 700
Heat Index: 36°   Visibility: 8mi
Dew Point: 34°   Wind: 20mph
Humidity: 93%   Direction: 20°NNE
Pressure: 29.59"   Gusts: 35mph
Location:  38.55°N, 75.12°W
Report Text: KOXB 270253Z AUTO 02017G30KT 8SM UP OVC007 02/01 A2959 RMK AO2 PK WND 02032/0229 UPB17E26B49 SLP019 P0000 60000 T00220011 50004 TSNO
Loading
Personal Weather Stations






























Interactive Weather Map New forecast layout! Learn more

10-Day Weather Forecast

Advertisements
Track Severe Weather on mobile